sensor_id;sensor_type;location;lat;lon;timestamp;pressure;altitude;pressure_sealevel;temperature;humidity
73679;BME280;61978;52.742;16.962;2022-09-29T00:00:07;99356.41;;;11.96;100.00
73679;BME280;61978;52.742;16.962;2022-09-29T00:02:37;99360.87;;;12.02;100.00
73679;BME280;61978;52.742;16.962;2022-09-29T00:05:05;99366.08;;;12.06;100.00
73679;BME280;61978;52.742;16.962;2022-09-29T00:07:32;99372.38;;;12.00;100.00
73679;BME280;61978;52.742;16.962;2022-09-29T00:09:59;99375.25;;;11.96;100.00
73679;BME280;61978;52.742;16.962;2022-09-29T00:12:27;99374.64;;;11.94;100.00
73679;BME280;61978;52.742;16.962;2022-09-29T00:14:54;99377.84;;;11.94;100.00
73679;BME280;61978;52.742;16.962;2022-09-29T00:17:21;99380.84;;;11.95;100.00
73679;BME280;61978;52.742;16.962;2022-09-29T00:19:48;99378.06;;;12.01;100.00
73679;BME280;61978;52.742;16.962;2022-09-29T00:22:14;99375.83;;;11.98;100.00
73679;BME280;61978;52.742;16.962;2022-09-29T00:24:43;99380.17;;;11.99;100.00
73679;BME280;61978;52.742;16.962;2022-09-29T00:27:14;99382.86;;;11.99;100.00
73679;BME280;61978;52.742;16.962;2022-09-29T00:29:42;99383.36;;;12.08;100.00
73679;BME280;61978;52.742;16.962;2022-09-29T00:32:09;99394.09;;;11.96;100.00
73679;BME280;61978;52.742;16.962;2022-09-29T00:34:38;99388.98;;;11.97;100.00
73679;BME280;61978;52.742;16.962;2022-09-29T00:37:05;99396.04;;;11.89;100.00
73679;BME280;61978;52.742;16.962;2022-09-29T00:39:33;99394.17;;;11.90;100.00
73679;BME280;61978;52.742;16.962;2022-09-29T00:42:01;99390.97;;;11.90;100.00
73679;BME280;61978;52.742;16.962;2022-09-29T00:44:52;99384.67;;;11.96;100.00
73679;BME280;61978;52.742;16.962;2022-09-29T00:47:18;99399.52;;;11.78;100.00
73679;BME280;61978;52.742;16.962;2022-09-29T00:49:54;99401.69;;;11.79;100.00
73679;BME280;61978;52.742;16.962;2022-09-29T00:52:43;99397.55;;;11.76;100.00
73679;BME280;61978;52.742;16.962;2022-09-29T00:55:22;99396.66;;;11.73;100.00
73679;BME280;61978;52.742;16.962;2022-09-29T00:58:00;99396.52;;;11.77;100.00
73679;BME280;61978;52.742;16.962;2022-09-29T01:00:23;99398.31;;;11.74;100.00
73679;BME280;61978;52.742;16.962;2022-09-29T01:03:00;99404.45;;;11.72;100.00
73679;BME280;61978;52.742;16.962;2022-09-29T01:05:42;99405.28;;;11.73;100.00
73679;BME280;61978;52.742;16.962;2022-09-29T01:07:56;99408.09;;;11.68;100.00
73679;BME280;61978;52.742;16.962;2022-09-29T01:10:25;99406.30;;;11.62;100.00
73679;BME280;61978;52.742;16.962;2022-09-29T01:12:54;99409.30;;;11.63;100.00
73679;BME280;61978;52.742;16.962;2022-09-29T01:15:22;99409.75;;;11.60;100.00
73679;BME280;61978;52.742;16.962;2022-09-29T01:17:49;99416.30;;;11.55;100.00
73679;BME280;61978;52.742;16.962;2022-09-29T01:20:18;99422.96;;;11.53;100.00
73679;BME280;61978;52.742;16.962;2022-09-29T01:28:37;99413.27;;;11.52;100.00
73679;BME280;61978;52.742;16.962;2022-09-29T01:36:21;99432.38;;;11.44;100.00
73679;BME280;61978;52.742;16.962;2022-09-29T01:38:59;99425.38;;;11.43;100.00
73679;BME280;61978;52.742;16.962;2022-09-29T01:41:40;99427.00;;;11.53;100.00
73679;BME280;61978;52.742;16.962;2022-09-29T01:44:15;99425.83;;;11.40;100.00
73679;BME280;61978;52.742;16.962;2022-09-29T01:49:19;99433.44;;;11.34;100.00
73679;BME280;61978;52.742;16.962;2022-09-29T01:52:05;99427.89;;;11.38;100.00
73679;BME280;61978;52.742;16.962;2022-09-29T01:54:58;99432.69;;;11.54;100.00
73679;BME280;61978;52.742;16.962;2022-09-29T01:57:51;99438.52;;;11.51;100.00
73679;BME280;61978;52.742;16.962;2022-09-29T01:59:45;99439.55;;;11.50;100.00
73679;BME280;61978;52.742;16.962;2022-09-29T02:02:16;99441.20;;;11.51;100.00
73679;BME280;61978;52.742;16.962;2022-09-29T02:04:49;99435.37;;;11.63;100.00
73679;BME280;61978;52.742;16.962;2022-09-29T02:07:18;99436.02;;;11.67;100.00
73679;BME280;61978;52.742;16.962;2022-09-29T02:09:49;99453.75;;;11.57;100.00
73679;BME280;61978;52.742;16.962;2022-09-29T02:12:20;99457.47;;;11.56;100.00
73679;BME280;61978;52.742;16.962;2022-09-29T02:14:50;99457.09;;;11.52;100.00
73679;BME280;61978;52.742;16.962;2022-09-29T02:17:21;99456.81;;;11.51;100.00
73679;BME280;61978;52.742;16.962;2022-09-29T02:19:50;99453.89;;;11.53;100.00
73679;BME280;61978;52.742;16.962;2022-09-29T02:22:18;99444.27;;;11.63;100.00
73679;BME280;61978;52.742;16.962;2022-09-29T02:24:45;99449.57;;;11.61;100.00
73679;BME280;61978;52.742;16.962;2022-09-29T02:27:13;99452.54;;;11.62;100.00
73679;BME280;61978;52.742;16.962;2022-09-29T02:29:40;99445.68;;;11.57;100.00
73679;BME280;61978;52.742;16.962;2022-09-29T02:32:08;99445.36;;;11.65;100.00
73679;BME280;61978;52.742;16.962;2022-09-29T02:34:37;99467.63;;;11.36;100.00
73679;BME280;61978;52.742;16.962;2022-09-29T02:37:39;99468.30;;;11.22;100.00
73679;BME280;61978;52.742;16.962;2022-09-29T02:46:07;99454.50;;;11.28;100.00
73679;BME280;61978;52.742;16.962;2022-09-29T02:59:11;99467.33;;;11.53;100.00
73679;BME280;61978;52.742;16.962;2022-09-29T03:01:46;99462.27;;;11.63;100.00
73679;BME280;61978;52.742;16.962;2022-09-29T03:04:06;99479.15;;;11.43;100.00
73679;BME280;61978;52.742;16.962;2022-09-29T03:06:33;99479.50;;;11.46;100.00
73679;BME280;61978;52.742;16.962;2022-09-29T03:09:01;99474.95;;;11.47;100.00
73679;BME280;61978;52.742;16.962;2022-09-29T03:11:28;99469.08;;;11.75;100.00
73679;BME280;61978;52.742;16.962;2022-09-29T03:13:54;99475.12;;;11.70;100.00
73679;BME280;61978;52.742;16.962;2022-09-29T03:16:22;99491.05;;;11.72;100.00
73679;BME280;61978;52.742;16.962;2022-09-29T03:18:49;99483.19;;;11.70;100.00
73679;BME280;61978;52.742;16.962;2022-09-29T03:21:17;99502.39;;;11.74;100.00
73679;BME280;61978;52.742;16.962;2022-09-29T03:23:43;99519.50;;;11.61;100.00
73679;BME280;61978;52.742;16.962;2022-09-29T03:26:11;99511.70;;;11.62;100.00
73679;BME280;61978;52.742;16.962;2022-09-29T03:28:39;99540.91;;;11.06;100.00
73679;BME280;61978;52.742;16.962;2022-09-29T03:31:06;99509.98;;;11.49;100.00
73679;BME280;61978;52.742;16.962;2022-09-29T03:33:38;99522.08;;;11.58;100.00
73679;BME280;61978;52.742;16.962;2022-09-29T03:36:05;99515.88;;;11.67;100.00
73679;BME280;61978;52.742;16.962;2022-09-29T03:38:34;99530.70;;;11.58;100.00
73679;BME280;61978;52.742;16.962;2022-09-29T03:41:02;99547.07;;;11.32;100.00
73679;BME280;61978;52.742;16.962;2022-09-29T03:43:28;99534.80;;;11.60;100.00
73679;BME280;61978;52.742;16.962;2022-09-29T03:45:55;99530.64;;;11.74;100.00
73679;BME280;61978;52.742;16.962;2022-09-29T03:48:23;99532.50;;;11.82;100.00
73679;BME280;61978;52.742;16.962;2022-09-29T03:50:51;99547.92;;;11.75;100.00
73679;BME280;61978;52.742;16.962;2022-09-29T03:53:19;99542.47;;;11.82;100.00
73679;BME280;61978;52.742;16.962;2022-09-29T03:55:47;99540.44;;;11.86;100.00
73679;BME280;61978;52.742;16.962;2022-09-29T03:58:17;99552.23;;;11.76;100.00
73679;BME280;61978;52.742;16.962;2022-09-29T04:00:47;99565.05;;;11.65;100.00
73679;BME280;61978;52.742;16.962;2022-09-29T04:03:14;99562.28;;;11.53;100.00
73679;BME280;61978;52.742;16.962;2022-09-29T04:05:43;99559.20;;;11.50;100.00
73679;BME280;61978;52.742;16.962;2022-09-29T04:08:11;99556.67;;;11.64;100.00
73679;BME280;61978;52.742;16.962;2022-09-29T04:10:38;99552.50;;;11.68;100.00
73679;BME280;61978;52.742;16.962;2022-09-29T04:13:06;99555.19;;;11.68;100.00
73679;BME280;61978;52.742;16.962;2022-09-29T04:15:35;99560.02;;;11.75;100.00
73679;BME280;61978;52.742;16.962;2022-09-29T04:18:06;99570.02;;;11.77;100.00
73679;BME280;61978;52.742;16.962;2022-09-29T04:20:37;99577.20;;;11.83;100.00
73679;BME280;61978;52.742;16.962;2022-09-29T04:23:05;99583.93;;;11.83;100.00
73679;BME280;61978;52.742;16.962;2022-09-29T04:25:32;99591.69;;;11.82;100.00
73679;BME280;61978;52.742;16.962;2022-09-29T04:27:59;99588.42;;;11.89;100.00
73679;BME280;61978;52.742;16.962;2022-09-29T04:30:29;99600.38;;;11.84;100.00
73679;BME280;61978;52.742;16.962;2022-09-29T04:32:58;99596.94;;;11.86;100.00
73679;BME280;61978;52.742;16.962;2022-09-29T04:35:26;99595.14;;;11.89;100.00
73679;BME280;61978;52.742;16.962;2022-09-29T04:37:54;99598.08;;;11.88;100.00
73679;BME280;61978;52.742;16.962;2022-09-29T04:40:24;99606.59;;;11.85;100.00
73679;BME280;61978;52.742;16.962;2022-09-29T04:42:53;99608.67;;;11.92;100.00
73679;BME280;61978;52.742;16.962;2022-09-29T04:45:20;99605.46;;;11.92;100.00
73679;BME280;61978;52.742;16.962;2022-09-29T04:47:49;99605.16;;;12.00;100.00
73679;BME280;61978;52.742;16.962;2022-09-29T04:50:16;99608.23;;;12.04;100.00
73679;BME280;61978;52.742;16.962;2022-09-29T04:52:43;99612.70;;;11.92;100.00
73679;BME280;61978;52.742;16.962;2022-09-29T04:55:11;99606.29;;;11.93;100.00
73679;BME280;61978;52.742;16.962;2022-09-29T04:57:39;99612.40;;;11.91;100.00
73679;BME280;61978;52.742;16.962;2022-09-29T05:00:08;99609.42;;;11.90;100.00
73679;BME280;61978;52.742;16.962;2022-09-29T05:02:36;99577.03;;;12.23;100.00
73679;BME280;61978;52.742;16.962;2022-09-29T05:05:05;99629.63;;;12.17;100.00
73679;BME280;61978;52.742;16.962;2022-09-29T05:07:36;99645.69;;;11.96;100.00
73679;BME280;61978;52.742;16.962;2022-09-29T05:10:05;99636.55;;;11.88;100.00
73679;BME280;61978;52.742;16.962;2022-09-29T05:12:32;99622.19;;;11.85;100.00
73679;BME280;61978;52.742;16.962;2022-09-29T05:15:01;99623.25;;;11.84;100.00
73679;BME280;61978;52.742;16.962;2022-09-29T05:17:31;99619.22;;;11.84;100.00
73679;BME280;61978;52.742;16.962;2022-09-29T05:19:59;99620.27;;;12.19;100.00
73679;BME280;61978;52.742;16.962;2022-09-29T05:22:26;99637.53;;;11.85;100.00
73679;BME280;61978;52.742;16.962;2022-09-29T05:24:53;99647.75;;;11.85;100.00
73679;BME280;61978;52.742;16.962;2022-09-29T05:27:20;99642.81;;;11.82;100.00
73679;BME280;61978;52.742;16.962;2022-09-29T05:29:48;99646.55;;;11.72;100.00
73679;BME280;61978;52.742;16.962;2022-09-29T05:32:16;99636.06;;;11.73;100.00
73679;BME280;61978;52.742;16.962;2022-09-29T05:34:42;99641.45;;;11.73;100.00
73679;BME280;61978;52.742;16.962;2022-09-29T05:37:09;99652.98;;;11.64;100.00
73679;BME280;61978;52.742;16.962;2022-09-29T05:39:35;99638.76;;;11.73;100.00
73679;BME280;61978;52.742;16.962;2022-09-29T05:42:04;99637.88;;;11.79;100.00
73679;BME280;61978;52.742;16.962;2022-09-29T05:44:32;99620.41;;;11.97;100.00
73679;BME280;61978;52.742;16.962;2022-09-29T05:46:59;99632.97;;;12.12;100.00
73679;BME280;61978;52.742;16.962;2022-09-29T05:49:27;99642.63;;;12.02;100.00
73679;BME280;61978;52.742;16.962;2022-09-29T05:51:57;99640.84;;;12.14;100.00
73679;BME280;61978;52.742;16.962;2022-09-29T05:54:24;99645.09;;;12.21;100.00
73679;BME280;61978;52.742;16.962;2022-09-29T05:56:53;99648.09;;;12.22;100.00
73679;BME280;61978;52.742;16.962;2022-09-29T05:59:20;99656.76;;;12.24;100.00
73679;BME280;61978;52.742;16.962;2022-09-29T06:01:47;99651.82;;;12.31;100.00
73679;BME280;61978;52.742;16.962;2022-09-29T06:04:14;99650.98;;;12.48;100.00
73679;BME280;61978;52.742;16.962;2022-09-29T06:06:42;99666.18;;;12.43;100.00
73679;BME280;61978;52.742;16.962;2022-09-29T06:09:10;99670.53;;;12.44;100.00
73679;BME280;61978;52.742;16.962;2022-09-29T06:11:37;99659.30;;;12.56;100.00
73679;BME280;61978;52.742;16.962;2022-09-29T06:14:05;99668.28;;;12.50;100.00
73679;BME280;61978;52.742;16.962;2022-09-29T06:16:32;99668.04;;;12.51;100.00
73679;BME280;61978;52.742;16.962;2022-09-29T06:19:00;99687.72;;;12.24;100.00
73679;BME280;61978;52.742;16.962;2022-09-29T06:21:29;99684.12;;;12.12;100.00
73679;BME280;61978;52.742;16.962;2022-09-29T06:23:57;99657.34;;;12.26;100.00
73679;BME280;61978;52.742;16.962;2022-09-29T06:26:25;99650.09;;;12.45;100.00
73679;BME280;61978;52.742;16.962;2022-09-29T06:28:53;99648.36;;;12.51;100.00
73679;BME280;61978;52.742;16.962;2022-09-29T06:31:23;99667.22;;;12.33;100.00
73679;BME280;61978;52.742;16.962;2022-09-29T06:33:52;99648.07;;;12.59;100.00
73679;BME280;61978;52.742;16.962;2022-09-29T06:36:37;99658.22;;;12.66;100.00
73679;BME280;61978;52.742;16.962;2022-09-29T06:39:23;99658.07;;;12.70;100.00
73679;BME280;61978;52.742;16.962;2022-09-29T06:41:51;99681.70;;;12.68;100.00
73679;BME280;61978;52.742;16.962;2022-09-29T06:44:23;99697.15;;;12.43;100.00
73679;BME280;61978;52.742;16.962;2022-09-29T06:46:50;99739.39;;;11.81;100.00
73679;BME280;61978;52.742;16.962;2022-09-29T06:49:18;99696.56;;;12.32;100.00
73679;BME280;61978;52.742;16.962;2022-09-29T06:51:46;99676.93;;;12.70;100.00
73679;BME280;61978;52.742;16.962;2022-09-29T06:54:20;99719.89;;;12.29;100.00
73679;BME280;61978;52.742;16.962;2022-09-29T06:56:51;99736.98;;;11.82;100.00
73679;BME280;61978;52.742;16.962;2022-09-29T06:59:20;99737.16;;;11.56;100.00
73679;BME280;61978;52.742;16.962;2022-09-29T07:01:47;99716.27;;;11.58;100.00
73679;BME280;61978;52.742;16.962;2022-09-29T07:04:16;99690.95;;;11.81;100.00
73679;BME280;61978;52.742;16.962;2022-09-29T07:06:44;99657.06;;;12.35;100.00
73679;BME280;61978;52.742;16.962;2022-09-29T07:09:12;99663.63;;;12.48;100.00
73679;BME280;61978;52.742;16.962;2022-09-29T07:11:43;99677.26;;;12.53;100.00
73679;BME280;61978;52.742;16.962;2022-09-29T07:14:13;99684.27;;;12.54;100.00
73679;BME280;61978;52.742;16.962;2022-09-29T07:16:41;99697.45;;;12.53;100.00
73679;BME280;61978;52.742;16.962;2022-09-29T07:19:09;99675.88;;;13.01;100.00
73679;BME280;61978;52.742;16.962;2022-09-29T07:21:36;99690.36;;;12.97;100.00
73679;BME280;61978;52.742;16.962;2022-09-29T07:24:03;99722.56;;;12.74;100.00
73679;BME280;61978;52.742;16.962;2022-09-29T07:26:33;99695.00;;;12.90;100.00
73679;BME280;61978;52.742;16.962;2022-09-29T07:29:01;99719.45;;;12.59;100.00
73679;BME280;61978;52.742;16.962;2022-09-29T07:31:29;99721.01;;;12.39;100.00
73679;BME280;61978;52.742;16.962;2022-09-29T07:33:56;99737.13;;;12.12;100.00
73679;BME280;61978;52.742;16.962;2022-09-29T07:36:23;99704.78;;;12.37;100.00
73679;BME280;61978;52.742;16.962;2022-09-29T07:38:52;99695.36;;;12.55;100.00
73679;BME280;61978;52.742;16.962;2022-09-29T07:41:21;99694.98;;;12.51;100.00
73679;BME280;61978;52.742;16.962;2022-09-29T07:43:48;99714.41;;;12.53;100.00
73679;BME280;61978;52.742;16.962;2022-09-29T07:46:15;99728.56;;;12.31;100.00
73679;BME280;61978;52.742;16.962;2022-09-29T07:48:43;99697.86;;;12.77;100.00
73679;BME280;61978;52.742;16.962;2022-09-29T07:51:14;99683.55;;;13.24;100.00
73679;BME280;61978;52.742;16.962;2022-09-29T07:53:42;99739.48;;;12.63;100.00
73679;BME280;61978;52.742;16.962;2022-09-29T07:56:13;99727.05;;;12.80;100.00
73679;BME280;61978;52.742;16.962;2022-09-29T07:58:40;99715.78;;;13.01;100.00
73679;BME280;61978;52.742;16.962;2022-09-29T08:01:09;99733.48;;;12.97;100.00
73679;BME280;61978;52.742;16.962;2022-09-29T08:03:39;99719.23;;;13.17;100.00
73679;BME280;61978;52.742;16.962;2022-09-29T08:06:08;99732.87;;;13.13;100.00
73679;BME280;61978;52.742;16.962;2022-09-29T08:08:36;99744.27;;;12.97;100.00
73679;BME280;61978;52.742;16.962;2022-09-29T08:11:05;99749.56;;;13.13;100.00
73679;BME280;61978;52.742;16.962;2022-09-29T08:13:35;99732.36;;;13.34;100.00
73679;BME280;61978;52.742;16.962;2022-09-29T08:16:04;99729.27;;;13.61;100.00
73679;BME280;61978;52.742;16.962;2022-09-29T08:18:34;99712.94;;;13.88;100.00
73679;BME280;61978;52.742;16.962;2022-09-29T08:21:02;99725.56;;;14.08;100.00
73679;BME280;61978;52.742;16.962;2022-09-29T08:23:33;99729.20;;;14.14;100.00
73679;BME280;61978;52.742;16.962;2022-09-29T08:26:04;99733.08;;;14.29;100.00
73679;BME280;61978;52.742;16.962;2022-09-29T08:28:32;99743.58;;;14.28;100.00
73679;BME280;61978;52.742;16.962;2022-09-29T08:31:11;99745.30;;;14.43;100.00
73679;BME280;61978;52.742;16.962;2022-09-29T08:33:38;99751.59;;;14.46;100.00
73679;BME280;61978;52.742;16.962;2022-09-29T08:36:11;99791.59;;;13.91;100.00
73679;BME280;61978;52.742;16.962;2022-09-29T08:38:43;99771.55;;;13.90;100.00
73679;BME280;61978;52.742;16.962;2022-09-29T08:41:31;99784.36;;;13.83;100.00
73679;BME280;61978;52.742;16.962;2022-09-29T08:44:13;99747.41;;;14.18;100.00
73679;BME280;61978;52.742;16.962;2022-09-29T08:46:51;99777.37;;;13.64;100.00
73679;BME280;61978;52.742;16.962;2022-09-29T08:49:23;99745.64;;;13.89;100.00
73679;BME280;61978;52.742;16.962;2022-09-29T08:51:55;99727.05;;;14.13;100.00
73679;BME280;61978;52.742;16.962;2022-09-29T08:54:31;99756.66;;;13.99;100.00
73679;BME280;61978;52.742;16.962;2022-09-29T08:57:00;99735.42;;;14.14;100.00
73679;BME280;61978;52.742;16.962;2022-09-29T08:59:28;99746.48;;;14.24;100.00
73679;BME280;61978;52.742;16.962;2022-09-29T09:04:38;99759.83;;;13.96;100.00
73679;BME280;61978;52.742;16.962;2022-09-29T09:12:24;99711.98;;;14.64;100.00
73679;BME280;61978;52.742;16.962;2022-09-29T09:20:43;99765.30;;;14.94;100.00
73679;BME280;61978;52.742;16.962;2022-09-29T09:23:19;99730.84;;;15.43;100.00
73679;BME280;61978;52.742;16.962;2022-09-29T09:26:02;99745.02;;;15.48;100.00
73679;BME280;61978;52.742;16.962;2022-09-29T09:31:20;99799.95;;;15.34;100.00
73679;BME280;61978;52.742;16.962;2022-09-29T09:33:51;99817.39;;;15.01;100.00
73679;BME280;61978;52.742;16.962;2022-09-29T09:36:41;99809.84;;;15.03;100.00
73679;BME280;61978;52.742;16.962;2022-09-29T09:39:34;99776.56;;;15.14;100.00
73679;BME280;61978;52.742;16.962;2022-09-29T09:42:00;99771.94;;;15.54;100.00
73679;BME280;61978;52.742;16.962;2022-09-29T09:44:34;99799.39;;;15.21;100.00
73679;BME280;61978;52.742;16.962;2022-09-29T09:47:22;99797.59;;;15.26;100.00
73679;BME280;61978;52.742;16.962;2022-09-29T09:49:44;99782.80;;;15.57;100.00
73679;BME280;61978;52.742;16.962;2022-09-29T09:52:26;99828.53;;;15.30;100.00
73679;BME280;61978;52.742;16.962;2022-09-29T09:54:58;99807.37;;;15.27;100.00
73679;BME280;61978;52.742;16.962;2022-09-29T09:57:53;99789.24;;;15.68;100.00
73679;BME280;61978;52.742;16.962;2022-09-29T10:00:24;99823.86;;;15.40;100.00
73679;BME280;61978;52.742;16.962;2022-09-29T10:02:54;99827.39;;;15.40;100.00
73679;BME280;61978;52.742;16.962;2022-09-29T10:05:31;99810.61;;;15.52;100.00
73679;BME280;61978;52.742;16.962;2022-09-29T10:07:59;99824.05;;;15.62;100.00
73679;BME280;61978;52.742;16.962;2022-09-29T10:10:27;99777.31;;;16.16;100.00
73679;BME280;61978;52.742;16.962;2022-09-29T10:12:57;99825.44;;;15.95;100.00
73679;BME280;61978;52.742;16.962;2022-09-29T10:15:28;99816.67;;;16.04;100.00
73679;BME280;61978;52.742;16.962;2022-09-29T10:20:46;99790.67;;;16.39;100.00
73679;BME280;61978;52.742;16.962;2022-09-29T10:23:33;99825.41;;;16.42;100.00
73679;BME280;61978;52.742;16.962;2022-09-29T10:26:12;99860.58;;;16.06;100.00
73679;BME280;61978;52.742;16.962;2022-09-29T10:28:50;99861.58;;;15.86;100.00
73679;BME280;61978;52.742;16.962;2022-09-29T10:33:56;99844.59;;;16.05;100.00
73679;BME280;61978;52.742;16.962;2022-09-29T10:36:26;99835.37;;;16.20;100.00
73679;BME280;61978;52.742;16.962;2022-09-29T10:38:54;99836.09;;;15.99;100.00
73679;BME280;61978;52.742;16.962;2022-09-29T10:41:21;99800.52;;;16.26;100.00
73679;BME280;61978;52.742;16.962;2022-09-29T10:43:51;99802.08;;;16.55;100.00
73679;BME280;61978;52.742;16.962;2022-09-29T10:46:50;99803.35;;;16.70;100.00
73679;BME280;61978;52.742;16.962;2022-09-29T10:49:19;99780.09;;;17.17;100.00
73679;BME280;61978;52.742;16.962;2022-09-29T10:52:16;99825.14;;;17.15;100.00
73679;BME280;61978;52.742;16.962;2022-09-29T10:54:34;99831.98;;;16.80;100.00
73679;BME280;61978;52.742;16.962;2022-09-29T10:57:13;99866.94;;;16.79;100.00
73679;BME280;61978;52.742;16.962;2022-09-29T10:59:46;99875.44;;;16.51;100.00
73679;BME280;61978;52.742;16.962;2022-09-29T11:02:19;99864.94;;;16.38;100.00
73679;BME280;61978;52.742;16.962;2022-09-29T11:04:45;99837.11;;;16.79;100.00
73679;BME280;61978;52.742;16.962;2022-09-29T11:07:13;99855.63;;;16.65;100.00
73679;BME280;61978;52.742;16.962;2022-09-29T11:09:41;99867.70;;;16.57;100.00
73679;BME280;61978;52.742;16.962;2022-09-29T11:12:35;99828.53;;;16.87;100.00
73679;BME280;61978;52.742;16.962;2022-09-29T11:15:24;99806.06;;;17.32;100.00
73679;BME280;61978;52.742;16.962;2022-09-29T11:17:52;99896.14;;;16.41;100.00
73679;BME280;61978;52.742;16.962;2022-09-29T11:20:20;99874.69;;;16.39;100.00
73679;BME280;61978;52.742;16.962;2022-09-29T11:23:02;99816.17;;;17.15;100.00
73679;BME280;61978;52.742;16.962;2022-09-29T11:28:33;99881.54;;;16.11;100.00
73679;BME280;61978;52.742;16.962;2022-09-29T11:39:27;99862.27;;;15.93;100.00
73679;BME280;61978;52.742;16.962;2022-09-29T11:44:58;99813.09;;;16.51;100.00
73679;BME280;61978;52.742;16.962;2022-09-29T11:47:41;99806.60;;;16.88;100.00
73679;BME280;61978;52.742;16.962;2022-09-29T11:53:15;99792.89;;;17.67;100.00
73679;BME280;61978;52.742;16.962;2022-09-29T11:58:37;99832.97;;;17.82;100.00
73679;BME280;61978;52.742;16.962;2022-09-29T12:09:57;99879.67;;;17.16;100.00
73679;BME280;61978;52.742;16.962;2022-09-29T12:15:30;99816.05;;;17.72;100.00
73679;BME280;61978;52.742;16.962;2022-09-29T12:17:56;99837.61;;;17.82;100.00
73679;BME280;61978;52.742;16.962;2022-09-29T12:20:31;99876.55;;;17.68;100.00
73679;BME280;61978;52.742;16.962;2022-09-29T12:23:01;99868.10;;;17.91;100.00
73679;BME280;61978;52.742;16.962;2022-09-29T12:25:34;99889.14;;;17.76;100.00
